Texas Instruments Debt to Equity Ratio 2006-2018 | TXN

Current and historical debt to equity ratio values for Texas Instruments (TXN) over the last 10 years. The debt/equity ratio can be defined as a measure of a company's financial leverage calculated by dividing its long-term debt by stockholders' equity. Texas Instruments debt/equity for the three months ending September 30, 2018 was 0.41.
Texas Instruments Debt/Equity Ratio Historical Data
Date Long Term Debt Shareholder's Equity Debt to Equity Ratio
2018-09-30 $4.32B $10.52B 0.41
2018-06-30 $5.07B $10.63B 0.48
2018-03-31 $3.58B $10.64B 0.34
2017-12-31 $3.58B $10.34B 0.35
2017-09-30 $3.08B $10.99B 0.28
2017-06-30 $3.08B $10.71B 0.29
2017-03-31 $2.98B $10.64B 0.28
2016-12-31 $2.98B $10.47B 0.28
2016-09-30 $2.98B $10.29B 0.29
2016-06-30 $2.98B $9.96B 0.30
2016-03-31 $2.87B $9.78B 0.29
2015-12-31 $3.12B $9.95B 0.31
2015-09-30 $3.13B $9.97B 0.31
2015-06-30 $3.13B $10.21B 0.31
2015-03-31 $3.64B $10.37B 0.35
2014-12-31 $3.63B $10.39B 0.35
2014-09-30 $3.64B $10.47B 0.35
2014-06-30 $4.39B $10.47B 0.42
2014-03-31 $4.65B $10.62B 0.44
2013-12-31 $4.16B $10.81B 0.39
2013-09-30 $4.16B $11.05B 0.38
2013-06-30 $4.17B $11.07B 0.38
2013-03-31 $4.18B $10.95B 0.38
2012-12-31 $4.19B $10.96B 0.38
2012-09-30 $4.19B $11.40B 0.37
2012-06-30 $2.70B $11.16B 0.24
2012-03-31 $4.21B $11.07B 0.38
2011-12-31 $4.21B $10.95B 0.38
2011-09-30 $4.22B $11.03B 0.38
2011-06-30 $3.50B $10.90B 0.32
2011-03-31 $0.00B $10.57B 0.00
2010-12-31 $0.00B $10.44B 0.00
2010-09-30 $0.00B $9.96B 0.00
2010-06-30 $0.00B $9.76B 0.00
2010-03-31 $0.00B $9.81B 0.00
2009-12-31 $0.00B $9.72B 0.00
2009-09-30 $0.00B $9.44B 0.00
2009-06-30 $0.00B $9.21B 0.00
2009-03-31 $0.00B $9.21B 0.00
2008-12-31 $0.00B $9.33B 0.00
2008-09-30 $0.00B $10.09B 0.00
2008-06-30 $0.00B $9.98B 0.00
2008-03-31 $0.00B $9.86B 0.00
2007-12-31 $0.00B $9.98B 0.00
2007-09-30 $0.00B $11.14B 0.00
2007-06-30 $0.00B $11.49B 0.00
2007-03-31 $0.00B $11.28B 0.00
2006-12-31 $0.00B $11.36B 0.00
2006-09-30 $0.00B $12.03B 0.00
2006-06-30 $0.00B $12.79B 0.00
2006-03-31 $0.32B $11.24B 0.03
2005-12-31 $0.33B $11.94B 0.03
2005-09-30 $0.06B $11.87B 0.01
2005-06-30 $0.06B $11.46B 0.01
2005-03-31 $0.06B $11.90B 0.01
Sector Industry Market Cap Revenue
Computer and Technology Semiconductor - General $90.887B $14.961B
Texas Instruments Incorporated (TI) is a global semiconductor design and manufacturing company that develops analog ICs and embedded processors. By employing the world's brightest minds, TI creates innovations that shape the future of technology. TI is helping approximately 100,000 customers transform the future, today. They produce TI DLP technology and education technology products. Analog products connect the physical and the digital worlds -turning signals like sound, pressure, temperature, humidity and light into digital 1s and 0s to be used by electronic devices - and translating that data back to information we interact with in the real world. Embedded processors are the processing brains of electronics that gather inputs from analog chips and perform computational processing to operate a system. TI DLP? technology powers a range of display and advanced light control applications spanning industrial, enterprise, automotive and consumer market segments, including projectors and cinema technology.
Stock Name Country Market Cap PE Ratio
Intel (INTC) United States $224.559B 10.93
NVIDIA (NVDA) United States $88.267B 21.00
STMicroelectronics (STM) Switzerland $12.391B 9.94
Amtech Systems (ASYS) United States $0.077B 3.97